Terminal Aerodrome Forecast
Issued by NWS

Home | Current Version | Previous Version | Text Only | Print | Product List | Glossary On
Versions: 1 2 3 4 5 6 7 8 9 10 11 12
000
FTUS46 KMFR 301700 RRA
TAFLMT
TAF
KLMT 301749Z 3018/3118 VRB03KT P6SM SCT120
     FM302100 16008KT P6SM VCTS BKN060CB BKN200
     FM302300 32010KT P6SM VCTS BKN060CB BKN300
     FM310400 33005KT P6SM SCT060 BKN200
     FM310900 12003KT P6SM FEW200=

USA.gov is the U.S. government's official web portal to all federal, state and local government web resources and services.